createdAt,value
2022-10-28T00:00:18.284Z,6.4
2022-10-28T00:05:24.500Z,6.4
2022-10-28T00:10:30.583Z,6.3
2022-10-28T00:15:19.629Z,6.3
2022-10-28T00:20:25.652Z,6.2
2022-10-28T00:25:31.732Z,6.2
2022-10-28T00:30:20.761Z,6.2
2022-10-28T00:35:26.848Z,6.2
2022-10-28T00:40:32.421Z,6.2
2022-10-28T00:45:21.536Z,6.1
2022-10-28T00:50:27.564Z,6.1
2022-10-28T00:55:16.615Z,6.1
2022-10-28T01:00:22.673Z,6.0
2022-10-28T01:05:28.020Z,6.0
2022-10-28T01:10:17.023Z,6.0
2022-10-28T01:15:23.156Z,6.0
2022-10-28T01:20:29.180Z,5.9
2022-10-28T01:25:18.226Z,6.0
2022-10-28T01:30:24.241Z,6.1
2022-10-28T01:35:35.555Z,6.1
2022-10-28T01:40:19.158Z,5.9
2022-10-28T01:45:25.234Z,5.9
2022-10-28T01:50:31.261Z,5.8
2022-10-28T01:55:20.235Z,5.8
2022-10-28T02:00:26.491Z,5.8
2022-10-28T02:05:31.671Z,6.1
2022-10-28T02:10:20.751Z,6.1
2022-10-28T02:15:26.950Z,6.2
2022-10-28T02:20:15.983Z,6.3
2022-10-28T02:25:21.986Z,6.4
2022-10-28T02:30:28.033Z,6.3
2022-10-28T02:35:16.995Z,6.3
2022-10-28T02:40:22.872Z,6.1
2022-10-28T02:45:28.785Z,6.1
2022-10-28T02:50:17.905Z,6.1
2022-10-28T02:55:23.894Z,6.0
2022-10-28T03:00:30.097Z,6.1
2022-10-28T03:05:19.318Z,6.0
2022-10-28T03:10:25.396Z,5.9
2022-10-28T03:15:31.539Z,6.0
2022-10-28T03:20:20.695Z,6.1
2022-10-28T03:25:26.534Z,6.2
2022-10-28T03:30:32.568Z,6.1
2022-10-28T03:35:21.621Z,6.0
2022-10-28T03:40:27.515Z,6.1
2022-10-28T03:45:16.557Z,6.1
2022-10-28T03:50:22.673Z,6.0
2022-10-28T03:55:28.628Z,6.0
2022-10-28T04:00:17.903Z,6.0
2022-10-28T04:05:23.079Z,6.0
2022-10-28T04:10:29.065Z,6.0
2022-10-28T04:15:18.135Z,6.2
2022-10-28T04:20:24.331Z,6.4
2022-10-28T04:25:30.257Z,6.5
2022-10-28T04:30:19.381Z,6.5
2022-10-28T04:35:25.391Z,6.3
2022-10-28T04:40:31.112Z,6.3
2022-10-28T04:45:20.053Z,6.3
2022-10-28T04:50:26.206Z,6.3
2022-10-28T04:55:32.190Z,6.3
2022-10-28T05:00:21.377Z,6.2
2022-10-28T05:05:26.573Z,6.2
2022-10-28T05:10:15.660Z,6.1
2022-10-28T05:15:21.687Z,6.0
2022-10-28T05:20:27.861Z,6.0
2022-10-28T05:25:16.834Z,5.9
2022-10-28T05:30:22.977Z,5.9
2022-10-28T05:35:29.001Z,5.8
2022-10-28T05:40:17.672Z,5.8
2022-10-28T05:45:23.779Z,5.8
2022-10-28T05:50:29.797Z,5.8
2022-10-28T05:55:18.853Z,5.9
2022-10-28T06:00:24.854Z,5.9
2022-10-28T06:05:31.287Z,5.7
2022-10-28T06:10:20.294Z,5.7
2022-10-28T06:15:24.833Z,5.7
2022-10-28T06:20:30.827Z,5.6
2022-10-28T06:25:20.762Z,5.7
2022-10-28T06:30:26.295Z,5.8
2022-10-28T06:35:15.032Z,6.0
2022-10-28T06:40:20.889Z,6.3
2022-10-28T06:45:26.982Z,6.3
2022-10-28T06:50:17.514Z,6.3
2022-10-28T06:55:23.547Z,6.5
2022-10-28T07:00:34.777Z,7.0
2022-10-28T07:05:17.959Z,7.1
2022-10-28T07:10:23.999Z,7.4
2022-10-28T07:15:30.148Z,7.8
2022-10-28T07:20:19.195Z,8.1
2022-10-28T07:25:25.326Z,8.7
2022-10-28T07:30:31.267Z,9.4
2022-10-28T07:35:20.313Z,9.3
2022-10-28T07:40:26.188Z,9.4
2022-10-28T07:45:32.273Z,9.6
2022-10-28T07:50:21.323Z,9.8
2022-10-28T07:55:27.360Z,9.9
2022-10-28T08:00:16.559Z,10.0
2022-10-28T08:05:21.769Z,10.1
2022-10-28T08:10:27.779Z,10.3
2022-10-28T08:15:16.782Z,11.0
2022-10-28T08:20:22.922Z,11.4
2022-10-28T08:25:29.018Z,11.6
2022-10-28T08:30:18.119Z,11.9
2022-10-28T08:35:24.088Z,12.1
2022-10-28T08:40:29.750Z,12.2
2022-10-28T08:45:18.803Z,12.3
2022-10-28T08:50:24.989Z,12.5
2022-10-28T08:55:31.027Z,12.8
2022-10-28T09:00:20.137Z,13.1
2022-10-28T09:05:26.452Z,13.3
2022-10-28T09:10:32.497Z,13.4
2022-10-28T09:15:21.545Z,13.4
2022-10-28T09:20:27.483Z,13.4
2022-10-28T09:25:16.521Z,13.6
2022-10-28T09:30:22.701Z,13.7
2022-10-28T09:35:29.464Z,14.0
2022-10-28T09:40:17.236Z,14.4
2022-10-28T09:45:23.109Z,14.5
2022-10-28T09:50:29.182Z,14.6
2022-10-28T09:55:18.331Z,14.7
2022-10-28T10:00:24.313Z,14.8
2022-10-28T10:05:30.504Z,14.8
2022-10-28T10:10:19.488Z,14.8
2022-10-28T10:15:25.730Z,15.0
2022-10-28T10:20:31.599Z,15.3
2022-10-28T10:25:20.734Z,15.4
2022-10-28T10:30:26.735Z,15.2
2022-10-28T10:35:32.801Z,15.4
2022-10-28T10:40:21.838Z,15.2
2022-10-28T10:45:27.699Z,16.0
2022-10-28T10:50:16.884Z,16.3
2022-10-28T10:55:22.819Z,16.2
2022-10-28T11:00:28.897Z,16.2
2022-10-28T11:05:21.622Z,16.9
2022-10-28T11:10:24.235Z,17.0
2022-10-28T11:15:30.290Z,16.5
2022-10-28T11:20:19.573Z,16.6
2022-10-28T11:25:25.489Z,16.9
2022-10-28T11:30:31.516Z,17.2
2022-10-28T11:35:20.507Z,17.5
2022-10-28T11:40:26.290Z,17.6
2022-10-28T11:45:32.359Z,18.0
2022-10-28T11:50:21.437Z,18.3
2022-10-28T11:55:27.443Z,18.3
2022-10-28T12:00:16.598Z,18.0
2022-10-28T12:05:22.121Z,17.9
2022-10-28T12:10:27.911Z,17.9
2022-10-28T12:15:16.989Z,17.9
2022-10-28T12:20:23.037Z,17.9
2022-10-28T12:25:29.076Z,17.9
2022-10-28T12:30:18.119Z,17.8
2022-10-28T12:35:24.326Z,17.6
2022-10-28T12:40:29.906Z,17.5
2022-10-28T12:45:18.986Z,17.5
2022-10-28T12:50:25.027Z,17.5
2022-10-28T12:55:31.188Z,17.6
2022-10-28T13:00:20.238Z,17.6
2022-10-28T13:05:26.731Z,17.8
2022-10-28T13:10:32.636Z,18.1
2022-10-28T13:15:21.577Z,18.5
2022-10-28T13:20:27.660Z,18.8
2022-10-28T13:25:16.771Z,18.6
2022-10-28T13:30:22.887Z,18.6
2022-10-28T13:35:28.918Z,18.4
2022-10-28T13:40:17.695Z,18.2
2022-10-28T13:45:23.785Z,18.0
2022-10-28T13:50:32.222Z,17.9
2022-10-28T13:55:18.756Z,17.8
2022-10-28T14:00:24.955Z,17.7
2022-10-28T14:05:31.426Z,17.7
2022-10-28T14:10:20.932Z,17.6
2022-10-28T14:15:26.281Z,17.5
2022-10-28T14:20:32.371Z,17.2
2022-10-28T14:25:21.360Z,17.2
2022-10-28T14:30:27.589Z,17.1
2022-10-28T14:35:16.476Z,17.1
2022-10-28T14:40:22.398Z,17.0
2022-10-28T14:45:28.383Z,17.1
2022-10-28T14:50:17.536Z,17.1
2022-10-28T14:55:23.466Z,17.0
2022-10-28T15:00:29.533Z,16.9
2022-10-28T15:05:17.818Z,16.7
2022-10-28T15:10:23.878Z,16.6
2022-10-28T15:15:29.965Z,16.6
2022-10-28T15:20:19.055Z,16.5
2022-10-28T15:25:25.182Z,16.3
2022-10-28T15:30:31.103Z,16.2
2022-10-28T15:35:20.186Z,16.1
2022-10-28T15:40:25.933Z,16.0
2022-10-28T15:45:31.950Z,16.1
2022-10-28T15:50:20.961Z,16.1
2022-10-28T15:55:41.076Z,15.9
2022-10-28T16:00:16.157Z,15.7
2022-10-28T16:05:25.366Z,15.8
2022-10-28T16:10:28.479Z,15.8
2022-10-28T16:15:17.578Z,15.1
2022-10-28T16:20:23.767Z,14.9
2022-10-28T16:25:29.664Z,14.7
2022-10-28T16:30:19.558Z,14.4
2022-10-28T16:35:24.976Z,13.9
2022-10-28T16:40:50.448Z,13.5
2022-10-28T16:45:19.486Z,13.3
2022-10-28T16:50:25.733Z,13.6
2022-10-28T16:55:31.623Z,13.9
2022-10-28T17:00:20.679Z,14.3
2022-10-28T17:05:26.157Z,14.3
2022-10-28T17:10:32.067Z,14.2
2022-10-28T17:15:21.084Z,13.6
2022-10-28T17:20:27.285Z,13.4
2022-10-28T17:25:16.206Z,13.8
2022-10-28T17:30:22.353Z,14.0
2022-10-28T17:35:28.449Z,14.0
2022-10-28T17:40:17.127Z,14.1
2022-10-28T17:45:23.273Z,14.4
2022-10-28T17:50:29.232Z,14.1
2022-10-28T17:55:18.242Z,13.6
2022-10-28T18:00:24.314Z,13.4
2022-10-28T18:05:29.642Z,13.2
2022-10-28T18:10:18.524Z,13.2
2022-10-28T18:15:24.603Z,13.3
2022-10-28T18:20:30.780Z,13.2
2022-10-28T18:25:19.659Z,13.1
2022-10-28T18:30:25.763Z,13.4
2022-10-28T18:35:31.827Z,13.9
2022-10-28T18:40:20.835Z,14.3
2022-10-28T18:45:26.895Z,14.0
2022-10-28T18:50:15.968Z,13.6
2022-10-28T18:55:21.903Z,13.8
2022-10-28T19:00:27.950Z,13.5
2022-10-28T19:05:17.465Z,13.3
2022-10-28T19:10:23.385Z,13.0
2022-10-28T19:15:29.393Z,12.5
2022-10-28T19:20:18.548Z,12.3
2022-10-28T19:25:24.516Z,12.2
2022-10-28T19:30:30.574Z,11.9
2022-10-28T19:35:19.655Z,11.7
2022-10-28T19:40:26.216Z,11.4
2022-10-28T19:45:31.517Z,11.5
2022-10-28T19:50:20.652Z,11.4
2022-10-28T19:55:26.619Z,11.3
2022-10-28T20:00:32.591Z,11.2
2022-10-28T20:05:20.913Z,11.1
2022-10-28T20:10:26.948Z,11.0
2022-10-28T20:15:16.175Z,10.8
2022-10-28T20:20:22.158Z,10.6
2022-10-28T20:25:28.146Z,10.6
2022-10-28T20:30:17.274Z,10.4
2022-10-28T20:35:23.261Z,10.4
2022-10-28T20:40:28.991Z,10.5
2022-10-28T20:45:18.007Z,10.4
2022-10-28T20:50:24.250Z,10.3
2022-10-28T20:55:32.886Z,10.4
2022-10-28T21:00:19.237Z,10.5
2022-10-28T21:05:24.565Z,10.5
2022-10-28T21:10:30.601Z,10.5
2022-10-28T21:15:19.624Z,10.4
2022-10-28T21:20:25.728Z,10.3
2022-10-28T21:25:31.936Z,10.3
2022-10-28T21:30:20.863Z,10.3
2022-10-28T21:35:26.911Z,10.4
2022-10-28T21:40:15.812Z,10.4
2022-10-28T21:45:21.650Z,10.4
2022-10-28T21:50:27.782Z,10.4
2022-10-28T21:55:20.633Z,10.4
2022-10-28T22:00:22.872Z,10.5
2022-10-28T22:05:28.751Z,10.4
2022-10-28T22:10:17.928Z,10.4
2022-10-28T22:15:23.853Z,10.4
2022-10-28T22:20:29.958Z,10.2
2022-10-28T22:25:18.959Z,10.0
2022-10-28T22:30:25.157Z,9.8
2022-10-28T22:35:31.082Z,9.7
2022-10-28T22:40:20.287Z,9.7
2022-10-28T22:45:26.291Z,9.6
2022-10-28T22:50:33.467Z,9.4
2022-10-28T22:55:21.624Z,9.4
2022-10-28T23:00:27.566Z,9.3
2022-10-28T23:05:16.167Z,9.1
2022-10-28T23:10:22.362Z,9.1
2022-10-28T23:15:28.284Z,9.1
2022-10-28T23:20:17.620Z,9.0
2022-10-28T23:25:23.385Z,8.9
2022-10-28T23:30:29.467Z,8.9
2022-10-28T23:35:18.652Z,8.8
2022-10-28T23:40:23.987Z,8.7
2022-10-28T23:45:29.959Z,8.7
2022-10-28T23:50:18.991Z,8.7
2022-10-28T23:55:25.220Z,8.7
